sensor_id;sensor_type;location;lat;lon;timestamp;pressure;altitude;pressure_sealevel;temperature;humidity
65666;BME280;52365;47.464;18.976;2023-11-19T00:00:11;100365.03;;;4.65;63.69
65666;BME280;52365;47.464;18.976;2023-11-19T00:00:32;100357.53;;;4.87;62.96
65666;BME280;52365;47.464;18.976;2023-11-19T00:00:53;100363.06;;;5.03;62.25
65666;BME280;52365;47.464;18.976;2023-11-19T00:01:14;100359.19;;;5.08;61.80
65666;BME280;52365;47.464;18.976;2023-11-19T00:01:35;100356.00;;;5.20;61.34
65666;BME280;52365;47.464;18.976;2023-11-19T00:01:51;100360.34;;;5.38;60.78
65666;BME280;52365;47.464;18.976;2023-11-19T00:02:12;100362.22;;;5.41;60.51
65666;BME280;52365;47.464;18.976;2023-11-19T00:02:33;100357.28;;;5.39;60.33
65666;BME280;52365;47.464;18.976;2023-11-19T00:02:54;100350.81;;;5.37;60.27
65666;BME280;52365;47.464;18.976;2023-11-19T00:03:15;100356.38;;;5.22;60.46
65666;BME280;52365;47.464;18.976;2023-11-19T00:03:36;100358.56;;;5.00;60.71
65666;BME280;52365;47.464;18.976;2023-11-19T00:03:57;100364.00;;;4.90;61.16
65666;BME280;52365;47.464;18.976;2023-11-19T00:04:18;100359.91;;;4.82;61.53
65666;BME280;52365;47.464;18.976;2023-11-19T00:04:40;100358.69;;;4.86;61.70
65666;BME280;52365;47.464;18.976;2023-11-19T00:05:01;100357.34;;;4.71;61.94
65666;BME280;52365;47.464;18.976;2023-11-19T00:05:22;100347.25;;;4.51;62.44
65666;BME280;52365;47.464;18.976;2023-11-19T00:05:43;100356.91;;;4.38;62.91
65666;BME280;52365;47.464;18.976;2023-11-19T00:06:05;100353.22;;;4.25;63.57
65666;BME280;52365;47.464;18.976;2023-11-19T00:06:26;100356.31;;;4.20;63.87
65666;BME280;52365;47.464;18.976;2023-11-19T00:06:48;100355.53;;;4.23;63.95
65666;BME280;52365;47.464;18.976;2023-11-19T00:07:09;100351.28;;;4.29;63.97
65666;BME280;52365;47.464;18.976;2023-11-19T00:07:31;100354.34;;;4.27;64.00
65666;BME280;52365;47.464;18.976;2023-11-19T00:07:52;100353.44;;;4.45;63.83
65666;BME280;52365;47.464;18.976;2023-11-19T00:08:13;100344.63;;;4.48;63.61
65666;BME280;52365;47.464;18.976;2023-11-19T00:08:34;100336.22;;;4.49;63.41
65666;BME280;52365;47.464;18.976;2023-11-19T00:08:55;100346.97;;;4.42;63.51
65666;BME280;52365;47.464;18.976;2023-11-19T00:09:16;100345.41;;;4.45;63.51
65666;BME280;52365;47.464;18.976;2023-11-19T00:09:39;100342.37;;;4.43;63.57
65666;BME280;52365;47.464;18.976;2023-11-19T00:10:00;100341.25;;;4.44;63.64
65666;BME280;52365;47.464;18.976;2023-11-19T00:10:24;100336.25;;;4.46;63.65
65666;BME280;52365;47.464;18.976;2023-11-19T00:10:45;100343.62;;;4.35;63.91
65666;BME280;52365;47.464;18.976;2023-11-19T00:11:07;100349.34;;;4.33;64.12
65666;BME280;52365;47.464;18.976;2023-11-19T00:11:28;100348.59;;;4.33;64.27
65666;BME280;52365;47.464;18.976;2023-11-19T00:11:49;100347.53;;;4.23;64.48
65666;BME280;52365;47.464;18.976;2023-11-19T00:12:10;100352.09;;;4.26;64.47
65666;BME280;52365;47.464;18.976;2023-11-19T00:12:31;100348.63;;;4.25;64.52
65666;BME280;52365;47.464;18.976;2023-11-19T00:12:52;100345.63;;;4.23;64.60
65666;BME280;52365;47.464;18.976;2023-11-19T00:13:13;100351.00;;;4.16;64.94
65666;BME280;52365;47.464;18.976;2023-11-19T00:13:34;100344.19;;;4.12;65.02
65666;BME280;52365;47.464;18.976;2023-11-19T00:13:55;100347.16;;;4.21;65.03
65666;BME280;52365;47.464;18.976;2023-11-19T00:14:16;100350.75;;;4.45;64.64
65666;BME280;52365;47.464;18.976;2023-11-19T00:14:37;100352.34;;;4.73;63.88
65666;BME280;52365;47.464;18.976;2023-11-19T00:14:59;100349.09;;;4.92;63.01
65666;BME280;52365;47.464;18.976;2023-11-19T00:15:20;100349.34;;;5.05;62.40
65666;BME280;52365;47.464;18.976;2023-11-19T00:15:41;100350.31;;;5.18;61.72
65666;BME280;52365;47.464;18.976;2023-11-19T00:16:02;100352.44;;;5.00;61.44
65666;BME280;52365;47.464;18.976;2023-11-19T00:16:25;100346.81;;;4.91;61.55
65666;BME280;52365;47.464;18.976;2023-11-19T00:16:46;100343.56;;;4.76;61.80
65666;BME280;52365;47.464;18.976;2023-11-19T00:17:07;100340.69;;;4.60;62.08
65666;BME280;52365;47.464;18.976;2023-11-19T00:17:28;100342.25;;;4.57;62.55
65666;BME280;52365;47.464;18.976;2023-11-19T00:17:49;100342.66;;;4.52;62.89
65666;BME280;52365;47.464;18.976;2023-11-19T00:18:10;100349.97;;;4.48;63.03
65666;BME280;52365;47.464;18.976;2023-11-19T00:18:31;100350.00;;;4.44;63.19
65666;BME280;52365;47.464;18.976;2023-11-19T00:18:53;100348.78;;;4.52;63.21
65666;BME280;52365;47.464;18.976;2023-11-19T00:19:14;100347.59;;;4.57;63.17
65666;BME280;52365;47.464;18.976;2023-11-19T00:19:35;100349.91;;;4.51;63.19
65666;BME280;52365;47.464;18.976;2023-11-19T00:19:56;100348.84;;;4.45;63.25
65666;BME280;52365;47.464;18.976;2023-11-19T00:20:18;100351.53;;;4.42;63.35
65666;BME280;52365;47.464;18.976;2023-11-19T00:20:40;100347.06;;;4.32;63.62
65666;BME280;52365;47.464;18.976;2023-11-19T00:21:01;100357.06;;;4.20;63.88
65666;BME280;52365;47.464;18.976;2023-11-19T00:21:22;100351.06;;;4.13;64.34
65666;BME280;52365;47.464;18.976;2023-11-19T00:21:43;100350.34;;;4.05;64.84
65666;BME280;52365;47.464;18.976;2023-11-19T00:22:04;100351.16;;;3.98;65.18
65666;BME280;52365;47.464;18.976;2023-11-19T00:22:26;100356.97;;;3.86;65.94
65666;BME280;52365;47.464;18.976;2023-11-19T00:22:47;100349.63;;;4.01;65.64
65666;BME280;52365;47.464;18.976;2023-11-19T00:23:06;100354.12;;;4.08;65.45
65666;BME280;52365;47.464;18.976;2023-11-19T00:23:28;100358.06;;;3.96;65.71
65666;BME280;52365;47.464;18.976;2023-11-19T00:23:49;100352.66;;;3.99;65.69
65666;BME280;52365;47.464;18.976;2023-11-19T00:24:10;100360.75;;;3.92;65.80
65666;BME280;52365;47.464;18.976;2023-11-19T00:24:32;100354.63;;;3.95;65.78
65666;BME280;52365;47.464;18.976;2023-11-19T00:24:54;100355.69;;;4.05;65.65
65666;BME280;52365;47.464;18.976;2023-11-19T00:25:15;100361.31;;;4.14;65.39
65666;BME280;52365;47.464;18.976;2023-11-19T00:25:36;100360.59;;;4.10;65.33
65666;BME280;52365;47.464;18.976;2023-11-19T00:25:59;100368.63;;;4.07;65.33
65666;BME280;52365;47.464;18.976;2023-11-19T00:26:20;100360.19;;;4.12;65.30
65666;BME280;52365;47.464;18.976;2023-11-19T00:26:41;100359.75;;;4.17;65.21
65666;BME280;52365;47.464;18.976;2023-11-19T00:27:02;100365.06;;;4.20;65.10
65666;BME280;52365;47.464;18.976;2023-11-19T00:27:23;100360.84;;;4.26;64.93
65666;BME280;52365;47.464;18.976;2023-11-19T00:27:44;100360.03;;;4.29;64.77
65666;BME280;52365;47.464;18.976;2023-11-19T00:28:05;100362.41;;;4.20;64.81
65666;BME280;52365;47.464;18.976;2023-11-19T00:28:26;100370.81;;;4.19;64.89
65666;BME280;52365;47.464;18.976;2023-11-19T00:28:48;100367.13;;;4.02;64.96
65666;BME280;52365;47.464;18.976;2023-11-19T00:29:10;100370.97;;;4.01;65.18
65666;BME280;52365;47.464;18.976;2023-11-19T00:29:31;100361.19;;;3.84;65.60
65666;BME280;52365;47.464;18.976;2023-11-19T00:29:52;100365.69;;;3.90;65.82
65666;BME280;52365;47.464;18.976;2023-11-19T00:30:13;100372.44;;;4.09;65.72
65666;BME280;52365;47.464;18.976;2023-11-19T00:30:35;100368.56;;;4.17;65.20
65666;BME280;52365;47.464;18.976;2023-11-19T00:30:51;100370.78;;;4.22;64.67
65666;BME280;52365;47.464;18.976;2023-11-19T00:31:12;100367.13;;;4.06;64.73
65666;BME280;52365;47.464;18.976;2023-11-19T00:31:33;100374.53;;;3.80;65.23
65666;BME280;52365;47.464;18.976;2023-11-19T00:31:54;100373.47;;;3.70;65.62
65666;BME280;52365;47.464;18.976;2023-11-19T00:32:15;100369.34;;;3.55;66.15
65666;BME280;52365;47.464;18.976;2023-11-19T00:32:36;100381.22;;;3.47;66.59
65666;BME280;52365;47.464;18.976;2023-11-19T00:32:58;100373.22;;;3.47;66.80
65666;BME280;52365;47.464;18.976;2023-11-19T00:33:19;100371.34;;;3.40;67.05
65666;BME280;52365;47.464;18.976;2023-11-19T00:33:40;100376.28;;;3.42;67.18
65666;BME280;52365;47.464;18.976;2023-11-19T00:34:02;100372.44;;;3.46;67.24
65666;BME280;52365;47.464;18.976;2023-11-19T00:34:23;100378.16;;;3.48;67.26
65666;BME280;52365;47.464;18.976;2023-11-19T00:34:44;100377.44;;;3.37;67.42
65666;BME280;52365;47.464;18.976;2023-11-19T00:35:06;100377.09;;;3.35;67.55
65666;BME280;52365;47.464;18.976;2023-11-19T00:35:28;100373.59;;;3.49;67.43
65666;BME280;52365;47.464;18.976;2023-11-19T00:35:49;100376.97;;;3.57;67.28
65666;BME280;52365;47.464;18.976;2023-11-19T00:36:10;100387.22;;;3.62;67.03
65666;BME280;52365;47.464;18.976;2023-11-19T00:36:31;100391.41;;;3.63;66.92
65666;BME280;52365;47.464;18.976;2023-11-19T00:36:52;100384.56;;;3.58;67.02
65666;BME280;52365;47.464;18.976;2023-11-19T00:37:16;100377.72;;;3.57;67.08
65666;BME280;52365;47.464;18.976;2023-11-19T00:37:37;100383.00;;;3.68;66.92
65666;BME280;52365;47.464;18.976;2023-11-19T00:37:58;100383.75;;;3.68;66.87
65666;BME280;52365;47.464;18.976;2023-11-19T00:38:19;100378.81;;;3.67;66.91
65666;BME280;52365;47.464;18.976;2023-11-19T00:38:40;100381.12;;;3.61;66.87
65666;BME280;52365;47.464;18.976;2023-11-19T00:39:01;100385.75;;;3.53;66.98
65666;BME280;52365;47.464;18.976;2023-11-19T00:39:22;100374.69;;;3.55;67.02
65666;BME280;52365;47.464;18.976;2023-11-19T00:39:44;100382.72;;;3.51;67.06
65666;BME280;52365;47.464;18.976;2023-11-19T00:40:05;100379.69;;;3.49;67.10
65666;BME280;52365;47.464;18.976;2023-11-19T00:40:26;100377.34;;;3.59;67.09
65666;BME280;52365;47.464;18.976;2023-11-19T00:40:47;100378.03;;;3.70;66.89
65666;BME280;52365;47.464;18.976;2023-11-19T00:41:08;100376.47;;;3.72;66.77
65666;BME280;52365;47.464;18.976;2023-11-19T00:41:29;100371.16;;;3.72;66.72
65666;BME280;52365;47.464;18.976;2023-11-19T00:41:50;100371.94;;;3.69;66.75
65666;BME280;52365;47.464;18.976;2023-11-19T00:42:12;100371.19;;;3.69;66.81
65666;BME280;52365;47.464;18.976;2023-11-19T00:42:33;100364.50;;;3.43;67.12
65666;BME280;52365;47.464;18.976;2023-11-19T00:42:54;100367.53;;;3.38;67.48
65666;BME280;52365;47.464;18.976;2023-11-19T00:43:15;100372.84;;;3.45;67.45
65666;BME280;52365;47.464;18.976;2023-11-19T00:43:36;100360.72;;;3.37;67.62
65666;BME280;52365;47.464;18.976;2023-11-19T00:43:57;100361.50;;;3.34;67.85
65666;BME280;52365;47.464;18.976;2023-11-19T00:44:18;100364.19;;;3.30;68.05
65666;BME280;52365;47.464;18.976;2023-11-19T00:44:40;100363.38;;;3.33;68.11
65666;BME280;52365;47.464;18.976;2023-11-19T00:45:03;100356.63;;;3.18;68.42
65666;BME280;52365;47.464;18.976;2023-11-19T00:45:24;100350.97;;;3.01;68.96
65666;BME280;52365;47.464;18.976;2023-11-19T00:45:45;100356.31;;;2.98;69.22
65666;BME280;52365;47.464;18.976;2023-11-19T00:46:07;100360.47;;;3.06;69.31
65666;BME280;52365;47.464;18.976;2023-11-19T00:46:28;100354.69;;;3.25;69.03
65666;BME280;52365;47.464;18.976;2023-11-19T00:46:49;100364.12;;;3.41;68.69
65666;BME280;52365;47.464;18.976;2023-11-19T00:47:10;100352.69;;;3.44;68.45
65666;BME280;52365;47.464;18.976;2023-11-19T00:47:31;100358.00;;;3.44;68.24
65666;BME280;52365;47.464;18.976;2023-11-19T00:47:47;100361.88;;;3.36;68.31
65666;BME280;52365;47.464;18.976;2023-11-19T00:48:08;100365.28;;;3.40;68.27
65666;BME280;52365;47.464;18.976;2023-11-19T00:48:29;100361.44;;;3.41;68.24
65666;BME280;52365;47.464;18.976;2023-11-19T00:48:50;100358.31;;;3.60;68.02
65666;BME280;52365;47.464;18.976;2023-11-19T00:49:11;100358.63;;;3.69;67.68
65666;BME280;52365;47.464;18.976;2023-11-19T00:49:32;100362.72;;;3.81;67.34
65666;BME280;52365;47.464;18.976;2023-11-19T00:49:53;100366.47;;;3.91;66.96
65666;BME280;52365;47.464;18.976;2023-11-19T00:50:14;100360.81;;;3.82;66.84
65666;BME280;52365;47.464;18.976;2023-11-19T00:50:35;100366.19;;;3.74;66.87
65666;BME280;52365;47.464;18.976;2023-11-19T00:50:56;100367.41;;;3.66;67.01
65666;BME280;52365;47.464;18.976;2023-11-19T00:51:17;100360.59;;;3.58;67.26
65666;BME280;52365;47.464;18.976;2023-11-19T00:51:38;100360.69;;;3.44;67.58
65666;BME280;52365;47.464;18.976;2023-11-19T00:51:59;100360.72;;;3.33;68.05
65666;BME280;52365;47.464;18.976;2023-11-19T00:52:20;100359.94;;;3.40;68.15
65666;BME280;52365;47.464;18.976;2023-11-19T00:52:42;100360.69;;;3.44;68.15
65666;BME280;52365;47.464;18.976;2023-11-19T00:53:03;100360.16;;;3.63;67.91
65666;BME280;52365;47.464;18.976;2023-11-19T00:53:25;100365.00;;;3.83;67.45
65666;BME280;52365;47.464;18.976;2023-11-19T00:53:46;100357.19;;;4.06;66.81
65666;BME280;52365;47.464;18.976;2023-11-19T00:54:07;100361.00;;;4.09;66.32
65666;BME280;52365;47.464;18.976;2023-11-19T00:54:28;100361.81;;;4.02;66.08
65666;BME280;52365;47.464;18.976;2023-11-19T00:54:49;100359.91;;;3.99;65.96
65666;BME280;52365;47.464;18.976;2023-11-19T00:55:10;100355.06;;;3.87;66.05
65666;BME280;52365;47.464;18.976;2023-11-19T00:55:32;100356.69;;;3.73;66.25
65666;BME280;52365;47.464;18.976;2023-11-19T00:55:53;100357.50;;;3.63;66.55
65666;BME280;52365;47.464;18.976;2023-11-19T00:56:14;100360.22;;;3.56;66.82
65666;BME280;52365;47.464;18.976;2023-11-19T00:56:35;100357.19;;;3.54;67.04
65666;BME280;52365;47.464;18.976;2023-11-19T00:56:56;100359.84;;;3.54;67.22
65666;BME280;52365;47.464;18.976;2023-11-19T00:57:17;100364.44;;;3.50;67.34
65666;BME280;52365;47.464;18.976;2023-11-19T00:57:38;100358.34;;;3.49;67.44
65666;BME280;52365;47.464;18.976;2023-11-19T00:57:59;100364.09;;;3.44;67.58
65666;BME280;52365;47.464;18.976;2023-11-19T00:58:20;100353.03;;;3.46;67.68
65666;BME280;52365;47.464;18.976;2023-11-19T00:58:41;100355.25;;;3.62;67.51
65666;BME280;52365;47.464;18.976;2023-11-19T00:59:03;100352.91;;;3.67;67.33
65666;BME280;52365;47.464;18.976;2023-11-19T00:59:24;100361.28;;;3.69;67.17
65666;BME280;52365;47.464;18.976;2023-11-19T00:59:45;100355.25;;;3.62;67.25
65666;BME280;52365;47.464;18.976;2023-11-19T01:00:08;100352.59;;;3.58;67.42
65666;BME280;52365;47.464;18.976;2023-11-19T01:00:38;100346.81;;;3.70;67.25
65666;BME280;52365;47.464;18.976;2023-11-19T01:00:54;100345.75;;;3.61;67.24
65666;BME280;52365;47.464;18.976;2023-11-19T01:01:17;100353.00;;;3.53;67.45
65666;BME280;52365;47.464;18.976;2023-11-19T01:01:38;100349.97;;;3.51;67.54
65666;BME280;52365;47.464;18.976;2023-11-19T01:01:59;100345.84;;;3.43;67.74
65666;BME280;52365;47.464;18.976;2023-11-19T01:02:24;100345.53;;;3.34;68.03
65666;BME280;52365;47.464;18.976;2023-11-19T01:02:45;100350.78;;;3.44;68.00
65666;BME280;52365;47.464;18.976;2023-11-19T01:03:06;100354.59;;;3.47;67.89
65666;BME280;52365;47.464;18.976;2023-11-19T01:03:27;100347.72;;;3.46;67.89
65666;BME280;52365;47.464;18.976;2023-11-19T01:03:48;100351.81;;;3.61;67.73
65666;BME280;52365;47.464;18.976;2023-11-19T01:04:09;100353.31;;;3.66;67.50
65666;BME280;52365;47.464;18.976;2023-11-19T01:04:34;100349.44;;;3.74;67.28
65666;BME280;52365;47.464;18.976;2023-11-19T01:04:56;100348.50;;;3.95;66.87
65666;BME280;52365;47.464;18.976;2023-11-19T01:05:17;100352.63;;;4.07;66.36
65666;BME280;52365;47.464;18.976;2023-11-19T01:05:42;100351.72;;;4.24;65.85
65666;BME280;52365;47.464;18.976;2023-11-19T01:06:03;100357.72;;;4.35;65.22
65666;BME280;52365;47.464;18.976;2023-11-19T01:06:30;100353.81;;;4.43;64.83
65666;BME280;52365;47.464;18.976;2023-11-19T01:06:52;100353.34;;;4.52;64.42
65666;BME280;52365;47.464;18.976;2023-11-19T01:07:12;100358.50;;;4.32;64.40
65666;BME280;52365;47.464;18.976;2023-11-19T01:07:33;100357.94;;;4.10;64.70
65666;BME280;52365;47.464;18.976;2023-11-19T01:07:54;100351.97;;;3.92;65.17
65666;BME280;52365;47.464;18.976;2023-11-19T01:08:16;100356.91;;;3.97;65.50
65666;BME280;52365;47.464;18.976;2023-11-19T01:08:37;100353.75;;;4.09;65.49
65666;BME280;52365;47.464;18.976;2023-11-19T01:08:58;100352.66;;;4.03;65.46
65666;BME280;52365;47.464;18.976;2023-11-19T01:09:19;100353.53;;;3.89;65.68
65666;BME280;52365;47.464;18.976;2023-11-19T01:09:43;100355.16;;;3.72;66.10
65666;BME280;52365;47.464;18.976;2023-11-19T01:10:05;100353.28;;;3.69;66.43
65666;BME280;52365;47.464;18.976;2023-11-19T01:10:26;100356.69;;;3.73;66.51
65666;BME280;52365;47.464;18.976;2023-11-19T01:10:47;100358.22;;;3.74;66.57
65666;BME280;52365;47.464;18.976;2023-11-19T01:11:08;100357.78;;;3.79;66.51
65666;BME280;52365;47.464;18.976;2023-11-19T01:11:29;100354.03;;;3.73;66.56
65666;BME280;52365;47.464;18.976;2023-11-19T01:11:50;100358.97;;;3.75;66.55
65666;BME280;52365;47.464;18.976;2023-11-19T01:12:11;100364.28;;;3.78;66.53
65666;BME280;52365;47.464;18.976;2023-11-19T01:12:32;100356.66;;;3.77;66.54
65666;BME280;52365;47.464;18.976;2023-11-19T01:12:53;100359.37;;;3.70;66.73
65666;BME280;52365;47.464;18.976;2023-11-19T01:13:14;100368.59;;;3.58;67.18
65666;BME280;52365;47.464;18.976;2023-11-19T01:13:35;100359.09;;;3.57;67.47
65666;BME280;52365;47.464;18.976;2023-11-19T01:13:56;100362.91;;;3.52;67.51
65666;BME280;52365;47.464;18.976;2023-11-19T01:14:17;100355.72;;;3.42;67.59
65666;BME280;52365;47.464;18.976;2023-11-19T01:14:38;100369.84;;;3.39;67.67
65666;BME280;52365;47.464;18.976;2023-11-19T01:14:59;100360.28;;;3.45;67.64
65666;BME280;52365;47.464;18.976;2023-11-19T01:15:21;100362.94;;;3.49;67.63
65666;BME280;52365;47.464;18.976;2023-11-19T01:15:43;100357.16;;;3.61;67.42
65666;BME280;52365;47.464;18.976;2023-11-19T01:16:04;100350.66;;;3.66;67.24
65666;BME280;52365;47.464;18.976;2023-11-19T01:16:27;100365.09;;;3.68;67.09
65666;BME280;52365;47.464;18.976;2023-11-19T01:16:48;100356.34;;;3.64;67.11
65666;BME280;52365;47.464;18.976;2023-11-19T01:17:09;100359.00;;;3.64;67.12
65666;BME280;52365;47.464;18.976;2023-11-19T01:17:30;100361.00;;;3.57;67.25
65666;BME280;52365;47.464;18.976;2023-11-19T01:17:52;100362.91;;;3.52;67.41
65666;BME280;52365;47.464;18.976;2023-11-19T01:18:13;100363.28;;;3.54;67.46
65666;BME280;52365;47.464;18.976;2023-11-19T01:18:34;100361.69;;;3.64;67.32
65666;BME280;52365;47.464;18.976;2023-11-19T01:18:56;100360.91;;;3.67;67.21
65666;BME280;52365;47.464;18.976;2023-11-19T01:19:17;100361.22;;;3.76;67.02
65666;BME280;52365;47.464;18.976;2023-11-19T01:19:38;100362.72;;;3.77;66.89
65666;BME280;52365;47.464;18.976;2023-11-19T01:19:59;100350.62;;;3.69;66.93
65666;BME280;52365;47.464;18.976;2023-11-19T01:20:20;100357.09;;;3.68;66.99
65666;BME280;52365;47.464;18.976;2023-11-19T01:20:41;100355.47;;;3.82;66.88
65666;BME280;52365;47.464;18.976;2023-11-19T01:21:03;100352.06;;;3.81;66.83
65666;BME280;52365;47.464;18.976;2023-11-19T01:21:24;100355.03;;;3.90;66.63
65666;BME280;52365;47.464;18.976;2023-11-19T01:21:45;100358.87;;;3.86;66.54
65666;BME280;52365;47.464;18.976;2023-11-19T01:22:06;100355.13;;;3.79;66.61
65666;BME280;52365;47.464;18.976;2023-11-19T01:22:27;100349.81;;;3.76;66.70
65666;BME280;52365;47.464;18.976;2023-11-19T01:22:49;100350.25;;;3.67;66.83
65666;BME280;52365;47.464;18.976;2023-11-19T01:23:10;100344.16;;;3.67;66.94
65666;BME280;52365;47.464;18.976;2023-11-19T01:23:31;100347.22;;;3.65;67.09
65666;BME280;52365;47.464;18.976;2023-11-19T01:23:53;100349.91;;;3.65;67.16
65666;BME280;52365;47.464;18.976;2023-11-19T01:24:14;100344.25;;;3.56;67.40
65666;BME280;52365;47.464;18.976;2023-11-19T01:24:35;100344.59;;;3.62;67.41
65666;BME280;52365;47.464;18.976;2023-11-19T01:24:56;100347.91;;;3.76;67.21
65666;BME280;52365;47.464;18.976;2023-11-19T01:25:18;100347.91;;;3.76;67.09
65666;BME280;52365;47.464;18.976;2023-11-19T01:25:39;100350.62;;;3.69;67.12
65666;BME280;52365;47.464;18.976;2023-11-19T01:26:00;100339.13;;;3.79;67.01
65666;BME280;52365;47.464;18.976;2023-11-19T01:26:21;100345.97;;;3.81;66.88
65666;BME280;52365;47.464;18.976;2023-11-19T01:26:43;100349.37;;;3.81;66.83
65666;BME280;52365;47.464;18.976;2023-11-19T01:27:07;100342.84;;;3.93;66.69
65666;BME280;52365;47.464;18.976;2023-11-19T01:27:29;100342.06;;;3.96;66.46
65666;BME280;52365;47.464;18.976;2023-11-19T01:27:50;100344.03;;;3.85;66.45
65666;BME280;52365;47.464;18.976;2023-11-19T01:28:11;100344.16;;;3.70;66.64
65666;BME280;52365;47.464;18.976;2023-11-19T01:28:32;100341.87;;;3.69;66.86
65666;BME280;52365;47.464;18.976;2023-11-19T01:28:53;100345.28;;;3.69;67.05
65666;BME280;52365;47.464;18.976;2023-11-19T01:29:14;100347.53;;;3.74;67.03
65666;BME280;52365;47.464;18.976;2023-11-19T01:29:35;100339.53;;;3.74;67.00
65666;BME280;52365;47.464;18.976;2023-11-19T01:29:58;100344.53;;;3.69;67.06
65666;BME280;52365;47.464;18.976;2023-11-19T01:30:19;100348.69;;;3.73;67.05
65666;BME280;52365;47.464;18.976;2023-11-19T01:30:41;100333.91;;;3.65;67.19
65666;BME280;52365;47.464;18.976;2023-11-19T01:31:02;100344.97;;;3.60;67.36
65666;BME280;52365;47.464;18.976;2023-11-19T01:31:24;100343.13;;;3.50;67.62
65666;BME280;52365;47.464;18.976;2023-11-19T01:31:46;100342.72;;;3.55;67.67
65666;BME280;52365;47.464;18.976;2023-11-19T01:32:07;100349.97;;;3.51;67.81
65666;BME280;52365;47.464;18.976;2023-11-19T01:32:29;100348.41;;;3.57;67.79
65666;BME280;52365;47.464;18.976;2023-11-19T01:32:50;100346.84;;;3.63;67.67
65666;BME280;52365;47.464;18.976;2023-11-19T01:33:10;100349.56;;;3.56;67.79
65666;BME280;52365;47.464;18.976;2023-11-19T01:33:31;100350.34;;;3.53;67.84
65666;BME280;52365;47.464;18.976;2023-11-19T01:33:52;100344.97;;;3.60;67.76
65666;BME280;52365;47.464;18.976;2023-11-19T01:34:13;100348.84;;;3.48;68.03
65666;BME280;52365;47.464;18.976;2023-11-19T01:34:34;100356.47;;;3.46;68.21
65666;BME280;52365;47.464;18.976;2023-11-19T01:34:56;100349.22;;;3.50;68.18
65666;BME280;52365;47.464;18.976;2023-11-19T01:35:17;100348.44;;;3.50;68.16
65666;BME280;52365;47.464;18.976;2023-11-19T01:35:38;100346.94;;;3.49;68.15
65666;BME280;52365;47.464;18.976;2023-11-19T01:35:59;100347.28;;;3.51;68.16
65666;BME280;52365;47.464;18.976;2023-11-19T01:36:20;100343.75;;;3.68;67.89
65666;BME280;52365;47.464;18.976;2023-11-19T01:36:41;100344.44;;;3.83;67.54
65666;BME280;52365;47.464;18.976;2023-11-19T01:37:02;100345.03;;;4.01;67.04
65666;BME280;52365;47.464;18.976;2023-11-19T01:37:24;100350.28;;;4.12;66.52
65666;BME280;52365;47.464;18.976;2023-11-19T01:37:45;100347.97;;;4.18;66.09
65666;BME280;52365;47.464;18.976;2023-11-19T01:38:06;100354.06;;;4.15;65.92
65666;BME280;52365;47.464;18.976;2023-11-19T01:38:28;100354.84;;;4.12;65.85
65666;BME280;52365;47.464;18.976;2023-11-19T01:38:49;100348.00;;;4.14;65.73
65666;BME280;52365;47.464;18.976;2023-11-19T01:39:10;100353.25;;;4.21;65.57
65666;BME280;52365;47.464;18.976;2023-11-19T01:39:31;100345.66;;;4.20;65.44
65666;BME280;52365;47.464;18.976;2023-11-19T01:39:52;100349.06;;;4.20;65.34
65666;BME280;52365;47.464;18.976;2023-11-19T01:40:13;100346.44;;;4.17;65.30
65666;BME280;52365;47.464;18.976;2023-11-19T01:40:36;100345.66;;;4.16;65.31
65666;BME280;52365;47.464;18.976;2023-11-19T01:40:57;100345.37;;;4.07;65.38
65666;BME280;52365;47.464;18.976;2023-11-19T01:41:18;100343.13;;;4.02;65.49
65666;BME280;52365;47.464;18.976;2023-11-19T01:41:39;100345.47;;;3.96;65.58
65666;BME280;52365;47.464;18.976;2023-11-19T01:42:00;100342.84;;;3.89;65.73
65666;BME280;52365;47.464;18.976;2023-11-19T01:42:21;100347.12;;;3.79;65.99
65666;BME280;52365;47.464;18.976;2023-11-19T01:42:42;100350.22;;;3.74;66.25
65666;BME280;52365;47.464;18.976;2023-11-19T01:43:03;100347.47;;;3.82;66.30
65666;BME280;52365;47.464;18.976;2023-11-19T01:43:31;100347.06;;;3.87;66.25
65666;BME280;52365;47.464;18.976;2023-11-19T01:43:53;100349.34;;;3.88;66.14
65666;BME280;52365;47.464;18.976;2023-11-19T01:44:15;100344.75;;;3.89;66.10
65666;BME280;52365;47.464;18.976;2023-11-19T01:44:36;100350.84;;;3.89;66.08
65666;BME280;52365;47.464;18.976;2023-11-19T01:44:58;100353.50;;;3.93;66.08
65666;BME280;52365;47.464;18.976;2023-11-19T01:45:39;100348.91;;;3.97;65.97
65666;BME280;52365;47.464;18.976;2023-11-19T01:46:01;100348.22;;;3.86;65.99
65666;BME280;52365;47.464;18.976;2023-11-19T01:46:24;100343.69;;;3.79;66.18
65666;BME280;52365;47.464;18.976;2023-11-19T01:46:46;100348.72;;;3.70;66.51
65666;BME280;52365;47.464;18.976;2023-11-19T01:47:10;100342.25;;;3.67;66.70
65666;BME280;52365;47.464;18.976;2023-11-19T01:47:31;100343.75;;;3.68;66.78
65666;BME280;52365;47.464;18.976;2023-11-19T01:47:52;100338.44;;;3.68;66.84
65666;BME280;52365;47.464;18.976;2023-11-19T01:48:14;100345.34;;;3.62;67.01
65666;BME280;52365;47.464;18.976;2023-11-19T01:48:37;100339.16;;;3.72;66.96
65666;BME280;52365;47.464;18.976;2023-11-19T01:49:02;100338.44;;;3.68;66.98
65666;BME280;52365;47.464;18.976;2023-11-19T01:49:23;100341.41;;;3.77;66.92
65666;BME280;52365;47.464;18.976;2023-11-19T01:49:44;100333.38;;;3.81;66.80
65666;BME280;52365;47.464;18.976;2023-11-19T01:50:06;100334.94;;;3.78;66.77
65666;BME280;52365;47.464;18.976;2023-11-19T01:50:30;100335.37;;;3.70;66.89
65666;BME280;52365;47.464;18.976;2023-11-19T01:50:51;100329.66;;;3.71;67.03
65666;BME280;52365;47.464;18.976;2023-11-19T01:51:13;100337.34;;;3.59;67.28
65666;BME280;52365;47.464;18.976;2023-11-19T01:51:38;100332.41;;;3.61;67.37
65666;BME280;52365;47.464;18.976;2023-11-19T01:52:01;100332.37;;;3.64;67.41